This is the latest recevied weather packets stored in our database for station/object PU5FJO-13. If no packets are shown the sender has not sent any weather packets the latest 10 day(s).
| Time | Temp. | Humidity | Pressure | Rain* | Wind** | Luminosity | Snow |
|---|---|---|---|---|---|---|---|
| 1777886772 | 17.78° C | 72% | 1020.2 hPa | - | - | - | - |
| 1777886172 | 17.78° C | 72% | 1020.1 hPa | - | - | - | - |
| 1777885572 | 17.78° C | 72% | 1020.1 hPa | - | - | - | - |
| 1777884972 | 17.78° C | 72% | 1020.1 hPa | - | - | - | - |
| 1777884372 | 17.78° C | 72% | 1020 hPa | - | - | - | - |
| 1777883772 | 17.78° C | 72% | 1019.8 hPa | - | - | - | - |
| 1777883172 | 17.78° C | 72% | 1019.7 hPa | - | - | - | - |
| 1777882572 | 17.78° C | 72% | 1019.7 hPa | - | - | - | - |
| 1777881972 | 17.78° C | 72% | 1019.6 hPa | - | - | - | - |
| 1777881372 | 17.78° C | 72% | 1019.8 hPa | - | - | - | - |
| 1777880772 | 17.78° C | 72% | 1019.9 hPa | - | - | - | - |
| 1777880172 | 17.22° C | 73% | 1020 hPa | - | - | - | - |
| 1777879572 | 17.22° C | 75% | 1020 hPa | - | - | - | - |
| 1777878972 | 15° C | 81% | 1020 hPa | - | - | - | - |
| 1777878372 | 15.56° C | 79% | 1020.2 hPa | - | - | - | - |
| 1777877772 | 15° C | 79% | 1020.3 hPa | - | - | - | - |
| 1777877172 | 15° C | 79% | 1020.2 hPa | - | - | - | - |
| 1777876572 | 15° C | 78% | 1020.5 hPa | - | - | - | - |
| 1777875972 | 14.44° C | 79% | 1020.6 hPa | - | - | - | - |
| 1777875372 | 13.89° C | 81% | 1020.8 hPa | - | - | - | - |
| 1777874772 | 13.89° C | 81% | 1020.8 hPa | - | - | - | - |
| 1777874172 | 13.89° C | 81% | 1021 hPa | - | - | - | - |
| 1777873572 | 13.33° C | 82% | 1021 hPa | - | - | - | - |
| 1777872972 | 13.33° C | 81% | 1021.3 hPa | - | - | - | - |
| 1777872372 | 13.89° C | 80% | 1021.3 hPa | - | - | - | - |
* Rain since midnight (hover to see other rain measurements)
** Current wind speed in m/s (hover to see current wind gust speed)